createdAt,value
2018-02-11T00:00:59.061Z,21.05
2018-02-11T00:03:27.192Z,19.37
2018-02-11T00:05:56.076Z,20.83
2018-02-11T00:08:24.213Z,22.00
2018-02-11T00:10:52.327Z,22.20
2018-02-11T00:13:20.456Z,19.35
2018-02-11T00:15:48.588Z,20.95
2018-02-11T00:18:16.732Z,21.30
2018-02-11T00:20:44.937Z,20.70
2018-02-11T00:23:13.095Z,21.77
2018-02-11T00:25:41.221Z,21.27
2018-02-11T00:28:09.352Z,20.10
2018-02-11T00:30:37.472Z,21.23
2018-02-11T00:33:05.604Z,19.60
2018-02-11T00:35:34.505Z,21.77
2018-02-11T00:38:09.372Z,16.77
2018-02-11T00:40:37.489Z,17.50
2018-02-11T00:43:06.396Z,17.52
2018-02-11T00:45:35.280Z,19.70
2018-02-11T00:48:04.196Z,17.37
2018-02-11T00:50:32.360Z,20.05
2018-02-11T00:53:00.567Z,18.60
2018-02-11T00:55:28.717Z,18.40
2018-02-11T00:57:56.858Z,19.02
2018-02-11T01:00:25.117Z,18.62
2018-02-11T01:02:54.004Z,18.17
2018-02-11T01:05:22.130Z,17.55
2018-02-11T01:07:50.265Z,17.08
2018-02-11T01:10:19.185Z,17.25
2018-02-11T01:12:47.330Z,19.25
2018-02-11T01:15:16.224Z,18.05
2018-02-11T01:17:44.381Z,19.75
2018-02-11T01:20:12.541Z,17.80
2018-02-11T01:22:40.677Z,19.08
2018-02-11T01:25:08.802Z,18.70
2018-02-11T01:27:36.923Z,18.05
2018-02-11T01:30:05.830Z,19.27
2018-02-11T01:32:33.974Z,19.05
2018-02-11T01:35:02.100Z,20.08
2018-02-11T01:37:31.004Z,20.42
2018-02-11T01:39:59.912Z,19.30
2018-02-11T01:42:28.081Z,22.80
2018-02-11T01:44:56.208Z,22.37
2018-02-11T01:47:24.329Z,24.85
2018-02-11T01:50:04.184Z,19.25
2018-02-11T01:52:32.300Z,21.62
2018-02-11T01:55:01.226Z,21.45
2018-02-11T01:57:29.360Z,21.00
2018-02-11T01:59:57.569Z,22.48
2018-02-11T02:02:25.700Z,21.87
2018-02-11T02:04:53.830Z,23.38
2018-02-11T02:07:21.967Z,21.37
2018-02-11T02:09:50.867Z,20.98
2018-02-11T02:12:18.998Z,20.95
2018-02-11T02:14:47.169Z,22.20
2018-02-11T02:17:15.320Z,21.50
2018-02-11T02:19:43.483Z,21.42
2018-02-11T02:22:11.609Z,21.70
2018-02-11T02:24:40.513Z,21.55
2018-02-11T02:27:08.641Z,21.90
2018-02-11T02:29:36.787Z,23.87
2018-02-11T02:32:04.901Z,22.20
2018-02-11T02:34:33.049Z,21.85
2018-02-11T02:37:01.190Z,23.58
2018-02-11T02:39:29.352Z,21.30
2018-02-11T02:41:57.481Z,21.35
2018-02-11T02:44:25.958Z,23.00
2018-02-11T02:46:54.081Z,23.70
2018-02-11T02:49:22.231Z,23.15
2018-02-11T02:51:51.136Z,22.30
2018-02-11T02:54:19.263Z,25.45
2018-02-11T02:56:47.397Z,24.48
2018-02-11T02:59:15.524Z,22.13
2018-02-11T03:01:44.425Z,20.67
2018-02-11T03:04:12.543Z,22.23
2018-02-11T03:06:40.683Z,20.05
2018-02-11T03:09:08.813Z,20.90
2018-02-11T03:11:36.950Z,18.85
2018-02-11T03:14:05.079Z,19.90
2018-02-11T03:16:33.218Z,20.33
2018-02-11T03:19:01.331Z,19.27
2018-02-11T03:21:29.465Z,20.30
2018-02-11T03:23:57.616Z,17.77
2018-02-11T03:26:25.782Z,20.20
2018-02-11T03:28:53.917Z,19.08
2018-02-11T03:31:22.053Z,20.85
2018-02-11T03:33:50.180Z,18.92
2018-02-11T03:36:18.311Z,21.35
2018-02-11T03:38:47.218Z,20.83
2018-02-11T03:41:16.126Z,20.60
2018-02-11T03:43:44.250Z,21.98
2018-02-11T03:46:12.386Z,19.48
2018-02-11T03:48:40.512Z,20.60
2018-02-11T03:51:09.457Z,19.70
2018-02-11T03:53:37.601Z,20.75
2018-02-11T03:56:05.730Z,19.75
2018-02-11T03:58:34.668Z,20.42
2018-02-11T04:01:05.396Z,20.95
2018-02-11T04:03:33.729Z,21.10
2018-02-11T04:06:02.614Z,20.02
2018-02-11T04:08:31.512Z,18.98
2018-02-11T04:11:00.481Z,19.23
2018-02-11T04:13:28.621Z,21.20
2018-02-11T04:15:56.752Z,21.73
2018-02-11T04:18:24.896Z,19.73
2018-02-11T04:20:53.012Z,20.65
2018-02-11T04:23:21.168Z,22.87
2018-02-11T04:25:49.284Z,19.75
2018-02-11T04:28:17.438Z,18.62
2018-02-11T04:30:45.568Z,20.62
2018-02-11T04:33:14.469Z,19.62
2018-02-11T04:35:43.429Z,18.30
2018-02-11T04:38:11.563Z,19.25
2018-02-11T04:40:39.692Z,19.50
2018-02-11T04:43:08.584Z,19.73
2018-02-11T04:45:37.497Z,19.42
2018-02-11T04:48:05.628Z,18.35
2018-02-11T04:50:33.764Z,21.10
2018-02-11T04:53:01.910Z,20.10
2018-02-11T04:55:30.037Z,19.95
2018-02-11T04:57:58.156Z,19.67
2018-02-11T05:00:26.294Z,19.05
2018-02-11T05:02:55.192Z,19.02
2018-02-11T05:05:24.085Z,17.48
2018-02-11T05:07:52.999Z,21.17
2018-02-11T05:10:21.137Z,19.05
2018-02-11T05:12:50.029Z,19.62
2018-02-11T05:15:18.941Z,19.00
2018-02-11T05:17:47.065Z,19.33
2018-02-11T05:20:15.214Z,20.30
2018-02-11T05:22:43.336Z,19.75
2018-02-11T05:25:12.246Z,22.60
2018-02-11T05:27:40.366Z,18.67
2018-02-11T05:30:08.521Z,21.25
2018-02-11T05:32:36.647Z,18.92
2018-02-11T05:35:05.547Z,21.48
2018-02-11T05:37:33.673Z,21.50
2018-02-11T05:40:01.820Z,22.23
2018-02-11T05:42:29.941Z,22.27
2018-02-11T05:44:58.900Z,20.08
2018-02-11T05:47:27.018Z,24.48
2018-02-11T05:49:55.160Z,21.50
2018-02-11T05:52:23.295Z,21.52
2018-02-11T05:54:51.437Z,22.00
2018-02-11T05:57:19.562Z,22.02
2018-02-11T05:59:47.776Z,22.02
2018-02-11T06:02:15.913Z,22.55
2018-02-11T06:04:44.044Z,23.55
2018-02-11T06:07:12.540Z,21.85
2018-02-11T06:09:40.658Z,22.70
2018-02-11T06:12:09.547Z,21.77
2018-02-11T06:14:38.445Z,21.40
2018-02-11T06:17:07.329Z,23.77
2018-02-11T06:19:36.236Z,23.20
2018-02-11T06:22:04.374Z,22.60
2018-02-11T06:24:32.496Z,22.00
2018-02-11T06:27:00.611Z,22.35
2018-02-11T06:29:28.753Z,22.58
2018-02-11T06:31:56.903Z,24.85
2018-02-11T06:34:25.044Z,22.23
2018-02-11T06:36:53.969Z,22.83
2018-02-11T06:39:22.091Z,20.30
2018-02-11T06:41:50.255Z,20.75
2018-02-11T06:44:18.371Z,20.48
2018-02-11T06:46:46.496Z,21.70
2018-02-11T06:49:14.632Z,21.02
2018-02-11T06:51:42.764Z,22.05
2018-02-11T06:54:11.672Z,21.65
2018-02-11T06:56:39.817Z,21.30
2018-02-11T06:59:08.718Z,21.77
2018-02-11T07:01:36.858Z,21.65
2018-02-11T07:04:05.019Z,18.58
2018-02-11T07:06:33.149Z,20.65
2018-02-11T07:09:01.272Z,20.12
2018-02-11T07:11:29.431Z,22.08
2018-02-11T07:13:57.544Z,21.45
2018-02-11T07:16:25.712Z,20.23
2018-02-11T07:18:54.037Z,20.42
2018-02-11T07:21:22.179Z,18.65
2018-02-11T07:23:50.308Z,17.65
2018-02-11T07:26:18.446Z,16.08
2018-02-11T07:28:46.571Z,15.68
2018-02-11T07:31:15.481Z,15.65
2018-02-11T07:33:43.612Z,14.13
2018-02-11T07:36:12.521Z,12.68
2018-02-11T07:38:41.417Z,13.85
2018-02-11T07:41:09.566Z,14.82
2018-02-11T07:43:38.481Z,13.55
2018-02-11T07:46:07.098Z,13.85
2018-02-11T07:48:35.259Z,12.82
2018-02-11T07:51:03.569Z,11.85
2018-02-11T07:53:31.712Z,11.90
2018-02-11T07:56:00.646Z,11.95
2018-02-11T07:58:28.800Z,12.00
2018-02-11T08:00:56.966Z,12.13
2018-02-11T08:03:25.151Z,11.93
2018-02-11T08:05:53.293Z,12.60
2018-02-11T08:08:21.474Z,12.52
2018-02-11T08:10:49.599Z,11.07
2018-02-11T08:13:17.729Z,10.20
2018-02-11T08:15:47.381Z,10.45
2018-02-11T08:18:15.526Z,9.45
2018-02-11T08:20:43.646Z,9.45
2018-02-11T08:23:11.761Z,9.65
2018-02-11T08:25:39.895Z,9.70
2018-02-11T08:28:08.029Z,10.43
2018-02-11T08:30:36.166Z,9.98
2018-02-11T08:33:04.290Z,11.00
2018-02-11T08:35:32.419Z,10.60
2018-02-11T08:38:00.554Z,11.40
2018-02-11T08:40:29.114Z,12.20
2018-02-11T08:42:57.238Z,10.82
2018-02-11T08:45:25.361Z,11.40
2018-02-11T08:47:53.500Z,11.38
2018-02-11T08:50:21.630Z,12.20
2018-02-11T08:52:49.766Z,11.20
2018-02-11T08:55:17.912Z,10.65
2018-02-11T08:57:46.054Z,12.32
2018-02-11T09:00:14.584Z,12.55
2018-02-11T09:02:43.492Z,16.17
2018-02-11T09:05:11.613Z,14.87
2018-02-11T09:07:39.751Z,13.85
2018-02-11T09:10:07.873Z,14.30
2018-02-11T09:12:36.014Z,14.43
2018-02-11T09:15:04.148Z,13.80
2018-02-11T09:17:32.280Z,13.07
2018-02-11T09:20:01.200Z,16.50
2018-02-11T09:22:29.336Z,13.93
2018-02-11T09:24:58.232Z,12.05
2018-02-11T09:27:27.193Z,13.15
2018-02-11T09:29:56.093Z,11.95
2018-02-11T09:32:24.781Z,11.27
2018-02-11T09:34:53.081Z,11.48
2018-02-11T09:37:21.350Z,12.30
2018-02-11T09:39:50.240Z,12.20
2018-02-11T09:42:19.140Z,12.60
2018-02-11T09:44:47.280Z,11.45
2018-02-11T09:47:15.408Z,13.23
2018-02-11T09:49:43.592Z,12.80
2018-02-11T09:52:11.698Z,11.57
2018-02-11T09:54:39.839Z,14.07
2018-02-11T09:57:07.981Z,12.15
2018-02-11T09:59:36.116Z,12.25
2018-02-11T10:02:05.004Z,12.25
2018-02-11T10:04:33.141Z,10.10
2018-02-11T10:07:01.277Z,9.70
2018-02-11T10:09:29.412Z,9.98
2018-02-11T10:11:57.536Z,10.10
2018-02-11T10:14:25.688Z,10.57
2018-02-11T10:16:53.969Z,9.52
2018-02-11T10:19:22.137Z,10.85
2018-02-11T10:21:50.431Z,11.63
2018-02-11T10:24:18.709Z,13.98
2018-02-11T10:26:46.869Z,11.07
2018-02-11T10:29:14.989Z,11.10
2018-02-11T10:31:43.200Z,12.45
2018-02-11T10:34:11.332Z,13.27
2018-02-11T10:36:39.456Z,12.60
2018-02-11T10:39:07.616Z,12.37
2018-02-11T10:41:35.759Z,13.27
2018-02-11T10:44:04.647Z,12.50
2018-02-11T10:46:32.780Z,13.00
2018-02-11T10:49:01.268Z,13.80
2018-02-11T10:51:29.389Z,11.50
2018-02-11T10:53:57.550Z,11.75
2018-02-11T10:56:26.611Z,12.27
2018-02-11T10:58:54.686Z,11.38
2018-02-11T11:01:22.830Z,11.10
2018-02-11T11:03:50.962Z,12.10
2018-02-11T11:06:19.864Z,10.50
2018-02-11T11:08:48.002Z,11.38
2018-02-11T11:11:16.134Z,9.77
2018-02-11T11:13:44.308Z,11.07
2018-02-11T11:16:12.448Z,10.30
2018-02-11T11:18:40.736Z,11.57
2018-02-11T11:21:08.969Z,10.38
2018-02-11T11:23:37.135Z,10.60
2018-02-11T11:26:05.353Z,11.20
2018-02-11T11:28:34.296Z,11.98
2018-02-11T11:31:02.429Z,11.50
2018-02-11T11:33:30.642Z,12.20
2018-02-11T11:35:58.753Z,11.90
2018-02-11T11:38:26.885Z,10.23
2018-02-11T11:40:55.038Z,10.82
2018-02-11T11:43:23.180Z,12.70
2018-02-11T11:45:51.304Z,12.32
2018-02-11T11:48:20.221Z,13.55
2018-02-11T11:50:48.368Z,13.20
2018-02-11T11:53:16.505Z,12.73
2018-02-11T11:55:44.646Z,13.60
2018-02-11T11:58:12.788Z,11.85
2018-02-11T12:00:41.677Z,13.70
2018-02-11T12:03:10.589Z,12.00
2018-02-11T12:05:38.705Z,13.95
2018-02-11T12:08:06.858Z,13.90
2018-02-11T12:10:34.976Z,13.18
2018-02-11T12:13:03.901Z,12.13
2018-02-11T12:15:32.021Z,13.00
2018-02-11T12:18:00.151Z,14.95
2018-02-11T12:20:28.293Z,14.77
2018-02-11T12:22:57.181Z,13.43
2018-02-11T12:25:26.086Z,13.20
2018-02-11T12:27:54.202Z,12.77
2018-02-11T12:30:22.338Z,13.30
2018-02-11T12:32:50.465Z,12.80
2018-02-11T12:35:18.605Z,14.18
2018-02-11T12:37:46.734Z,11.55
2018-02-11T12:40:15.637Z,13.40
2018-02-11T12:42:43.757Z,16.08
2018-02-11T12:45:11.897Z,13.35
2018-02-11T12:47:40.020Z,13.60
2018-02-11T12:50:08.923Z,15.07
2018-02-11T12:52:37.885Z,12.98
2018-02-11T12:55:06.033Z,13.40
2018-02-11T12:57:34.158Z,13.52
2018-02-11T13:00:03.075Z,14.40
2018-02-11T13:02:31.196Z,13.35
2018-02-11T13:04:59.436Z,12.82
2018-02-11T13:07:27.614Z,12.70
2018-02-11T13:09:55.741Z,13.50
2018-02-11T13:12:24.134Z,14.68
2018-02-11T13:14:52.449Z,16.08
2018-02-11T13:17:20.581Z,16.85
2018-02-11T13:19:48.707Z,14.40
2018-02-11T13:22:16.850Z,14.77
2018-02-11T13:24:44.968Z,14.85
2018-02-11T13:27:13.881Z,16.20
2018-02-11T13:29:42.013Z,14.57
2018-02-11T13:32:10.958Z,15.77
2018-02-11T13:34:39.077Z,15.57
2018-02-11T13:37:07.281Z,14.55
2018-02-11T13:39:35.429Z,15.48
2018-02-11T13:42:03.585Z,14.48
2018-02-11T13:44:31.713Z,12.20
2018-02-11T13:46:59.875Z,14.63
2018-02-11T13:49:27.994Z,12.25
2018-02-11T13:51:56.156Z,13.40
2018-02-11T13:54:24.275Z,13.43
2018-02-11T13:56:52.430Z,14.48
2018-02-11T13:59:20.566Z,11.98
2018-02-11T14:01:48.793Z,12.68
2018-02-11T14:04:16.928Z,14.18
2018-02-11T14:06:45.112Z,13.95
2018-02-11T14:09:14.062Z,12.63
2018-02-11T14:11:42.214Z,14.48
2018-02-11T14:14:10.787Z,15.10
2018-02-11T14:16:38.926Z,14.93
2018-02-11T14:19:07.150Z,15.10
2018-02-11T14:21:35.313Z,15.00
2018-02-11T14:24:03.425Z,11.50
2018-02-11T14:26:32.381Z,11.57
2018-02-11T14:29:00.521Z,11.70
2018-02-11T14:31:28.792Z,11.95
2018-02-11T14:33:57.713Z,8.68
2018-02-11T14:36:25.899Z,11.35
2018-02-11T14:38:54.034Z,9.82
2018-02-11T14:41:22.509Z,8.88
2018-02-11T14:43:50.636Z,8.80
2018-02-11T14:46:20.316Z,8.20
2018-02-11T14:48:48.489Z,8.10
2018-02-11T14:51:16.612Z,8.43
2018-02-11T14:53:45.507Z,6.93
2018-02-11T14:56:14.396Z,8.00
2018-02-11T14:58:42.544Z,7.20
2018-02-11T15:01:10.660Z,8.05
2018-02-11T15:03:38.924Z,8.70
2018-02-11T15:06:07.040Z,7.40
2018-02-11T15:08:35.160Z,7.95
2018-02-11T15:11:03.334Z,7.87
2018-02-11T15:13:32.235Z,8.05
2018-02-11T15:16:00.381Z,7.65
2018-02-11T15:18:29.266Z,7.15
2018-02-11T15:20:57.402Z,8.07
2018-02-11T15:23:26.292Z,7.70
2018-02-11T15:25:54.457Z,6.43
2018-02-11T15:28:22.573Z,7.62
2018-02-11T15:30:50.700Z,6.05
2018-02-11T15:33:18.825Z,5.95
2018-02-11T15:35:47.041Z,6.80
2018-02-11T15:38:15.166Z,6.57
2018-02-11T15:40:44.195Z,6.97
2018-02-11T15:43:12.383Z,5.68
2018-02-11T15:45:40.513Z,6.10
2018-02-11T15:48:09.398Z,5.87
2018-02-11T15:50:37.648Z,5.40
2018-02-11T15:53:06.533Z,5.05
2018-02-11T15:55:34.669Z,5.20
2018-02-11T15:58:02.801Z,6.35
2018-02-11T16:00:30.949Z,5.10
2018-02-11T16:02:59.074Z,4.65
2018-02-11T16:05:27.221Z,5.35
2018-02-11T16:07:55.356Z,5.28
2018-02-11T16:10:23.563Z,5.15
2018-02-11T16:12:51.702Z,7.53
2018-02-11T16:15:19.838Z,7.20
2018-02-11T16:17:47.954Z,10.32
2018-02-11T16:20:16.944Z,8.73
2018-02-11T16:22:45.849Z,6.65
2018-02-11T16:25:13.995Z,6.00
2018-02-11T16:27:42.110Z,6.47
2018-02-11T16:30:10.257Z,5.80
2018-02-11T16:32:42.223Z,5.12
2018-02-11T16:35:07.402Z,5.87
2018-02-11T16:37:35.549Z,6.25
2018-02-11T16:40:03.673Z,6.68
2018-02-11T16:42:31.813Z,7.15
2018-02-11T16:45:00.029Z,9.32
2018-02-11T16:47:28.215Z,24.80
2018-02-11T16:49:56.377Z,22.23
2018-02-11T16:52:24.526Z,10.02
2018-02-11T16:54:53.418Z,17.23
2018-02-11T16:57:21.552Z,11.20
2018-02-11T16:59:50.453Z,9.40
2018-02-11T17:02:18.596Z,9.45
2018-02-11T17:04:46.717Z,9.27
2018-02-11T17:07:15.641Z,5.80
2018-02-11T17:09:44.252Z,6.15
2018-02-11T17:12:12.377Z,6.55
2018-02-11T17:14:40.504Z,6.30
2018-02-11T17:17:08.638Z,6.18
2018-02-11T17:19:36.757Z,6.20
2018-02-11T17:22:05.718Z,6.97
2018-02-11T17:24:33.842Z,6.30
2018-02-11T17:27:01.988Z,9.65
2018-02-11T17:29:30.149Z,19.98
2018-02-11T17:31:59.790Z,31.70
2018-02-11T17:34:27.965Z,23.83
2018-02-11T17:36:56.117Z,12.85
2018-02-11T17:39:24.252Z,9.57
2018-02-11T17:41:52.454Z,9.52
2018-02-11T17:44:20.590Z,8.52
2018-02-11T17:46:48.706Z,8.20
2018-02-11T17:49:17.645Z,9.50
2018-02-11T17:51:45.769Z,10.75
2018-02-11T17:54:14.065Z,9.13
2018-02-11T17:56:42.244Z,9.68
2018-02-11T17:59:10.512Z,7.87
2018-02-11T18:01:38.757Z,9.38
2018-02-11T18:04:07.707Z,9.30
2018-02-11T18:06:35.855Z,11.70
2018-02-11T18:09:04.073Z,12.50
2018-02-11T18:11:32.193Z,10.90
2018-02-11T18:14:00.323Z,9.60
2018-02-11T18:16:28.468Z,8.10
2018-02-11T18:18:56.587Z,8.15
2018-02-11T18:21:24.741Z,10.75
2018-02-11T18:23:53.060Z,8.90
2018-02-11T18:26:21.192Z,9.82
2018-02-11T18:28:50.081Z,9.60
2018-02-11T18:31:18.222Z,9.73
2018-02-11T18:33:46.373Z,10.90
2018-02-11T18:36:14.513Z,10.75
2018-02-11T18:38:43.408Z,13.75
2018-02-11T18:41:11.569Z,12.93
2018-02-11T18:43:40.464Z,16.27
2018-02-11T18:46:09.409Z,13.05
2018-02-11T18:48:37.527Z,16.48
2018-02-11T18:51:05.676Z,14.85
2018-02-11T18:53:33.802Z,14.30
2018-02-11T18:56:01.937Z,18.80
2018-02-11T18:58:30.832Z,14.38
2018-02-11T19:00:58.976Z,12.35
2018-02-11T19:03:27.127Z,13.62
2018-02-11T19:05:55.241Z,14.05
2018-02-11T19:08:24.187Z,12.55
2018-02-11T19:10:52.325Z,10.90
2018-02-11T19:13:20.486Z,10.90
2018-02-11T19:15:48.697Z,11.20
2018-02-11T19:18:17.884Z,9.70
2018-02-11T19:20:47.474Z,10.35
2018-02-11T19:23:16.994Z,10.80
2018-02-11T19:25:46.914Z,9.98
2018-02-11T19:28:16.148Z,10.18
2018-02-11T19:30:45.046Z,11.10
2018-02-11T19:33:14.310Z,9.80
2018-02-11T19:35:42.766Z,9.90
2018-02-11T19:38:12.685Z,10.30
2018-02-11T19:40:41.438Z,10.50
2018-02-11T19:43:10.388Z,10.73
2018-02-11T19:45:40.025Z,9.52
2018-02-11T19:48:10.033Z,10.20
2018-02-11T19:50:40.120Z,10.68
2018-02-11T19:53:08.739Z,10.35
2018-02-11T19:55:39.305Z,10.25
2018-02-11T19:58:08.741Z,9.35
2018-02-11T20:00:37.699Z,9.70
2018-02-11T20:03:07.028Z,8.75
2018-02-11T20:05:37.584Z,9.50
2018-02-11T20:08:07.228Z,9.38
2018-02-11T20:10:35.615Z,8.38
2018-02-11T20:13:03.749Z,8.93
2018-02-11T20:15:31.889Z,9.25
2018-02-11T20:18:00.050Z,8.88
2018-02-11T20:20:28.155Z,7.80
2018-02-11T20:22:56.300Z,8.45
2018-02-11T20:25:24.431Z,12.43
2018-02-11T20:27:52.577Z,9.30
2018-02-11T20:30:20.816Z,9.38
2018-02-11T20:32:48.960Z,8.73
2018-02-11T20:35:17.121Z,8.07
2018-02-11T20:37:45.264Z,7.65
2018-02-11T20:40:14.135Z,7.97
2018-02-11T20:42:43.028Z,7.50
2018-02-11T20:45:11.951Z,7.53
2018-02-11T20:47:40.092Z,8.75
2018-02-11T20:50:08.981Z,7.75
2018-02-11T20:52:37.912Z,8.15
2018-02-11T20:55:06.738Z,9.20
2018-02-11T20:57:34.870Z,7.95
2018-02-11T21:00:02.985Z,9.02
2018-02-11T21:02:31.889Z,8.82
2018-02-11T21:05:00.371Z,7.70
2018-02-11T21:07:29.271Z,7.93
2018-02-11T21:09:57.401Z,8.80
2018-02-11T21:12:25.582Z,8.73
2018-02-11T21:14:53.662Z,7.85
2018-02-11T21:17:21.800Z,8.80
2018-02-11T21:19:49.932Z,8.77
2018-02-11T21:22:18.072Z,8.10
2018-02-11T21:24:46.991Z,9.27
2018-02-11T21:27:15.120Z,8.55
2018-02-11T21:29:43.369Z,8.88
2018-02-11T21:32:11.506Z,8.15
2018-02-11T21:34:39.637Z,8.35
2018-02-11T21:37:07.778Z,9.77
2018-02-11T21:39:35.913Z,8.57
2018-02-11T21:42:04.068Z,9.07
2018-02-11T21:44:33.045Z,9.32
2018-02-11T21:47:01.171Z,7.95
2018-02-11T21:49:29.330Z,8.80
2018-02-11T21:51:57.456Z,8.15
2018-02-11T21:54:25.776Z,8.40
2018-02-11T21:56:53.952Z,8.63
2018-02-11T21:59:22.082Z,8.45
2018-02-11T22:01:50.199Z,7.40
2018-02-11T22:04:18.394Z,8.35
2018-02-11T22:06:46.529Z,10.05
2018-02-11T22:09:14.685Z,8.80
2018-02-11T22:11:42.860Z,8.63
2018-02-11T22:14:11.765Z,9.80
2018-02-11T22:16:39.905Z,9.85
2018-02-11T22:19:08.826Z,10.35
2018-02-11T22:21:37.108Z,8.98
2018-02-11T22:24:05.316Z,8.82
2018-02-11T22:26:33.434Z,10.02
2018-02-11T22:29:01.568Z,9.07
2018-02-11T22:31:30.517Z,8.38
2018-02-11T22:33:58.636Z,8.48
2018-02-11T22:36:26.776Z,9.18
2018-02-11T22:38:54.928Z,8.48
2018-02-11T22:41:23.100Z,7.85
2018-02-11T22:43:51.238Z,8.48
2018-02-11T22:46:19.373Z,8.57
2018-02-11T22:48:47.504Z,9.10
2018-02-11T22:51:15.633Z,8.93
2018-02-11T22:53:43.958Z,8.50
2018-02-11T22:56:12.125Z,8.95
2018-02-11T22:58:40.240Z,8.70
2018-02-11T23:01:08.489Z,8.48
2018-02-11T23:03:36.606Z,9.30
2018-02-11T23:06:05.499Z,8.23
2018-02-11T23:08:34.524Z,8.10
2018-02-11T23:11:02.649Z,7.68
2018-02-11T23:13:30.808Z,7.85
2018-02-11T23:15:59.016Z,7.57
2018-02-11T23:18:27.501Z,7.82
2018-02-11T23:20:56.377Z,7.05
2018-02-11T23:23:25.287Z,7.72
2018-02-11T23:25:53.437Z,7.30
2018-02-11T23:28:22.468Z,7.55
2018-02-11T23:30:50.682Z,8.93
2018-02-11T23:33:18.870Z,10.85
2018-02-11T23:35:46.984Z,11.20
2018-02-11T23:38:15.134Z,9.80
2018-02-11T23:40:43.260Z,11.32
2018-02-11T23:43:11.411Z,9.90
2018-02-11T23:45:39.536Z,11.18
2018-02-11T23:48:08.446Z,10.68
2018-02-11T23:50:36.588Z,11.18
2018-02-11T23:53:04.724Z,7.95
2018-02-11T23:55:32.845Z,7.37
2018-02-11T23:58:00.994Z,7.75
